地図

経路データ

SID SEASON NUMBER BASIN SUBBASIN NAME ISO_TIME NATURE LAT LON WMO_WIND WMO_PRES WMO_AGENCY TRACK_TYPE DIST2LAND LANDFALL IFLAG USA_AGENCY USA_ATCF_ID USA_LAT USA_LON USA_RECORD USA_STATUS USA_WIND USA_PRES USA_SSHS USA_R34_NE USA_R34_SE USA_R34_SW USA_R34_NW USA_R50_NE USA_R50_SE USA_R50_SW USA_R50_NW USA_R64_NE USA_R64_SE USA_R64_SW USA_R64_NW USA_POCI USA_ROCI USA_RMW USA_EYE TOKYO_LAT TOKYO_LON TOKYO_GRADE TOKYO_WIND TOKYO_PRES TOKYO_R50_DIR TOKYO_R50_LONG TOKYO_R50_SHORT TOKYO_R30_DIR TOKYO_R30_LONG TOKYO_R30_SHORT TOKYO_LAND CMA_LAT CMA_LON CMA_CAT CMA_WIND CMA_PRES HKO_LAT HKO_LON HKO_CAT HKO_WIND HKO_PRES NEWDELHI_LAT NEWDELHI_LON NEWDELHI_GRADE NEWDELHI_WIND NEWDELHI_PRES NEWDELHI_CI NEWDELHI_DP NEWDELHI_POCI REUNION_LAT REUNION_LON REUNION_TYPE REUNION_WIND REUNION_PRES REUNION_TNUM REUNION_CI REUNION_RMW REUNION_R34_NE REUNION_R34_SE REUNION_R34_SW REUNION_R34_NW REUNION_R50_NE REUNION_R50_SE REUNION_R50_SW REUNION_R50_NW REUNION_R64_NE REUNION_R64_SE REUNION_R64_SW REUNION_R64_NW BOM_LAT BOM_LON BOM_TYPE BOM_WIND BOM_PRES BOM_TNUM BOM_CI BOM_RMW BOM_R34_NE BOM_R34_SE BOM_R34_SW BOM_R34_NW BOM_R50_NE BOM_R50_SE BOM_R50_SW BOM_R50_NW BOM_R64_NE BOM_R64_SE BOM_R64_SW BOM_R64_NW BOM_ROCI BOM_POCI BOM_EYE BOM_POS_METHOD BOM_PRES_METHOD NADI_LAT NADI_LON NADI_CAT NADI_WIND NADI_PRES WELLINGTON_LAT WELLINGTON_LON WELLINGTON_WIND WELLINGTON_PRES DS824_LAT DS824_LON DS824_STAGE DS824_WIND DS824_PRES TD9636_LAT TD9636_LON TD9636_STAGE TD9636_WIND TD9636_PRES TD9635_LAT TD9635_LON TD9635_WIND TD9635_PRES TD9635_ROCI NEUMANN_LAT NEUMANN_LON NEUMANN_CLASS NEUMANN_WIND NEUMANN_PRES MLC_LAT MLC_LON MLC_CLASS MLC_WIND MLC_PRES USA_GUST BOM_GUST BOM_GUST_PER REUNION_GUST REUNION_GUST_PER USA_SEAHGT USA_SEARAD_NE USA_SEARAD_SE USA_SEARAD_SW USA_SEARAD_NW STORM_SPEED STORM_DIR
1998031S12187 1998 9 SP MM WES 1998-01-31 06:00:00 NR -12.2000 -173.400 25 1000 nadi main 159 130 ________O_____ -1 -12.2000 -173.400 25 1000 -12.2000 -173.400 25 1000 5 141
1998031S12187 1998 9 SP MM WES 1998-01-31 09:00:00 NR -12.3973 -173.238 main 130 130 _______IP_____ -1 -12.3973 -173.238 25 999 -12.3973 -173.238 25 999 3 90
1998031S12187 1998 9 SP MM WES 1998-01-31 12:00:00 TS -12.2000 -173.125 25 999 nadi main 149 145 O_______O___O_ jtwc_sh SH191998 -11.3000 -173.800 25 -1 -12.5000 -172.900 25 999 -12.5000 -172.900 25 999 -11.3000 -173.800 TC 25 9 78
1998031S12187 1998 9 SP MM WES 1998-01-31 15:00:00 TS -12.2206 -172.368 main 145 145 P______IP___P_ SH191998 -11.7714 -172.554 25 -1 -12.4452 -172.275 25 998 -12.4452 -172.275 25 998 -11.7714 -172.554 TC 25 16 91
1998031S12187 1998 9 SP MM WES 1998-01-31 18:00:00 TS -12.2143 -171.457 25 998 nadi main 175 175 O_______O___O_ jtwc_sh SH191998 -12.1000 -171.400 25 -1 -12.3000 -171.500 25 998 -12.3000 -171.500 25 998 -12.1000 -171.400 TC 25 17 89
1998031S12187 1998 9 SP MM WES 1998-01-31 21:00:00 TS -12.1796 -170.585 main 241 241 P______IP___P_ SH191998 -12.2018 -170.404 30 -1 -12.1573 -170.765 27 998 -12.1573 -170.765 27 998 -12.2018 -170.404 TC 30 17 86
1998031S12187 1998 9 SP MM WES 1998-02-01 00:00:00 TS -12.1000 -169.750 30 998 nadi main 324 315 O_______O___O_ jtwc_sh SH191998 -12.2000 -169.500 35 0 -12.0000 -170.000 30 998 -12.0000 -170.000 30 998 -12.2000 -169.500 TC 35 17 85
1998031S12187 1998 9 SP MM WES 1998-02-01 03:00:00 TS -12.0311 -168.892 main 405 405 P______IP___P_ SH191998 -12.2498 -168.577 40 0 -11.8123 -169.207 32 996 -11.8123 -169.207 32 996 -12.2498 -168.577 TC 40 17 87
1998031S12187 1998 9 SP MM WES 1998-02-01 06:00:00 TS -12.0000 -168.050 35 995 nadi main 493 493 O_______O___O_ jtwc_sh SH191998 -12.3000 -167.700 45 0 -11.7000 -168.400 35 995 -11.7000 -168.400 35 995 -12.3000 -167.700 TC 45 16 90
1998031S12187 1998 9 SP MM WES 1998-02-01 09:00:00 TS -12.0411 -167.224 main 574 574 P______IP___P_ SH191998 -12.3424 -166.855 42 0 -11.7398 -167.593 37 992 -11.7398 -167.593 37 992 -12.3424 -166.855 TC 42 16 95
1998031S12187 1998 9 SP MM WES 1998-02-01 12:00:00 TS -12.1500 -166.450 40 990 nadi main 643 643 O_______O___O_ jtwc_sh SH191998 -12.4000 -166.100 40 0 -11.9000 -166.800 40 990 -11.9000 -166.800 40 990 -12.4000 -166.100 TC 40 15 101
1998031S12187 1998 9 SP MM WES 1998-02-01 15:00:00 TS -12.3210 -165.753 main 711 711 P______IP___P_ SH191998 -12.4921 -165.470 40 0 -12.1498 -166.035 40 990 -12.1498 -166.035 40 990 -12.4921 -165.470 TC 40 14 105
1998031S12187 1998 9 SP MM WES 1998-02-01 18:00:00 TS -12.5000 -165.100 40 990 nadi main 781 781 O_______O___O_ jtwc_sh SH191998 -12.6000 -164.900 40 0 -12.4000 -165.300 40 990 -12.4000 -165.300 40 990 -12.6000 -164.900 TC 40 13 102
1998031S12187 1998 9 SP MM WES 1998-02-01 21:00:00 TS -12.5923 -164.446 main 853 853 P______IP___P_ SH191998 -12.6774 -164.292 40 0 -12.5072 -164.600 42 988 -12.5072 -164.600 42 988 -12.6774 -164.292 TC 40 13 99
1998031S12187 1998 9 SP MM WES 1998-02-02 00:00:00 TS -12.7000 -163.800 45 987 nadi main 916 916 O_______O___O_ jtwc_sh SH191998 -12.8000 -163.700 40 0 -12.6000 -163.900 45 987 -12.6000 -163.900 45 987 -12.8000 -163.700 TC 40 13 103
1998031S12187 1998 9 SP MM WES 1998-02-02 03:00:00 TS -12.8989 -163.109 main 989 989 P______IP___P_ SH191998 -13.0200 -163.120 40 0 -12.7778 -163.098 45 987 -12.7778 -163.098 45 987 -13.0200 -163.120 TC 40 13 110
1998031S12187 1998 9 SP MM WES 1998-02-02 06:00:00 TS -13.1500 -162.500 45 987 nadi main 1051 1051 O_______O___O_ jtwc_sh SH191998 -13.3000 -162.600 40 0 -13.0000 -162.400 45 987 -13.0000 -162.400 45 987 -13.3000 -162.600 TC 40 11 117
1998031S12187 1998 9 SP MM WES 1998-02-02 09:00:00 TS -13.4098 -162.069 main 1092 1092 P______IP___P_ SH191998 -13.5924 -162.155 40 0 -13.2271 -161.982 45 987 -13.2271 -161.982 45 987 -13.5924 -162.155 TC 40 9 127
1998031S12187 1998 9 SP MM WES 1998-02-02 12:00:00 TS -13.7000 -161.750 45 987 nadi main 1134 1123 O_______O___O_ jtwc_sh SH191998 -13.9000 -161.800 40 0 -13.5000 -161.700 45 987 -13.5000 -161.700 45 987 -13.9000 -161.800 TC 40 8 136
1998031S12187 1998 9 SP MM WES 1998-02-02 15:00:00 TS -14.0174 -161.471 main 1155 1155 P______IP___P_ SH191998 -14.1999 -161.535 40 0 -13.8349 -161.407 45 987 -13.8349 -161.407 45 987 -14.1999 -161.535 TC 40 8 141
1998031S12187 1998 9 SP MM WES 1998-02-02 18:00:00 TS -14.3500 -161.200 45 987 nadi main 1188 1188 O_______O___O_ jtwc_sh SH191998 -14.5000 -161.300 40 0 -14.2000 -161.100 45 987 -14.2000 -161.100 45 987 -14.5000 -161.300 TC 40 9 138
1998031S12187 1998 9 SP MM WES 1998-02-02 21:00:00 TS -14.6825 -160.850 main 1222 1222 P______IP___P_ SH191998 -14.8075 -161.000 40 0 -14.5576 -160.700 45 987 -14.5576 -160.700 45 987 -14.8075 -161.000 TC 40 9 134
1998031S12187 1998 9 SP MM WES 1998-02-03 00:00:00 TS -15.0000 -160.500 45 987 nadi main 1267 1267 O_______O___O_ jtwc_sh SH191998 -15.1000 -160.700 40 0 -14.9000 -160.300 45 987 -14.9000 -160.300 45 987 -15.1000 -160.700 TC 40 9 134
1998031S12187 1998 9 SP MM WES 1998-02-03 03:00:00 TS -15.2824 -160.210 main 1302 1302 P______IP___P_ SH191998 -15.3649 -160.450 42 0 -15.1999 -159.970 47 986 -15.1999 -159.970 47 986 -15.3649 -160.450 TC 42 8 136
1998031S12187 1998 9 SP MM WES 1998-02-03 06:00:00 TS -15.5500 -159.950 50 985 nadi main 1337 1326 O_______O___O_ jtwc_sh SH191998 -15.6000 -160.200 45 0 -15.5000 -159.700 50 985 -15.5000 -159.700 50 985 -15.6000 -160.200 TC 45 8 138
1998031S12187 1998 9 SP MM WES 1998-02-03 09:00:00 TS -15.8475 -159.685 main 1362 1362 P______IP___P_ SH191998 -15.8150 -159.893 45 0 -15.8799 -159.478 50 985 -15.8799 -159.478 50 985 -15.8150 -159.893 TC 45 7 139
1998031S12187 1998 9 SP MM WES 1998-02-03 12:00:00 TS -16.1000 -159.450 50 985 nadi main 1388 1388 O_______O___O_ jtwc_sh SH191998 -16.0000 -159.600 45 0 -16.2000 -159.300 50 985 -16.2000 -159.300 50 985 -16.0000 -159.600 TC 45 6 135
1998031S12187 1998 9 SP MM WES 1998-02-03 15:00:00 TS -16.2474 -159.267 main 1411 1411 P______IP___P_ SH191998 -16.1574 -159.400 42 0 -16.3375 -159.135 47 986 -16.3375 -159.135 47 986 -16.1574 -159.400 TC 42 4 127
1998031S12187 1998 9 SP MM WES 1998-02-03 18:00:00 TS -16.3500 -159.100 45 987 nadi main 1434 1434 O_______O___O_ jtwc_sh SH191998 -16.3000 -159.200 40 0 -16.4000 -159.000 45 987 -16.4000 -159.000 45 987 -16.3000 -159.200 TC 40 4 124
1998031S12187 1998 9 SP MM WES 1998-02-03 21:00:00 TS -16.4787 -158.908 main 1459 1459 P______IP___P_ SH191998 -16.4574 -158.930 37 0 -16.5000 -158.885 42 988 -16.5000 -158.885 42 988 -16.4574 -158.930 TC 37 5 123
1998031S12187 1998 9 SP MM WES 1998-02-04 00:00:00 TS -16.6000 -158.700 40 990 nadi main 1482 1482 O_______O___O_ jtwc_sh SH191998 -16.6000 -158.600 35 0 -16.6000 -158.800 40 990 -16.6000 -158.800 40 990 -16.6000 -158.600 TC 35 5 118
1998031S12187 1998 9 SP MM WES 1998-02-04 03:00:00 TS -16.7000 -158.471 main 1505 1505 P______IP___P_ SH191998 -16.7076 -158.200 32 -1 -16.6925 -158.742 40 990 -16.6925 -158.742 40 990 -16.7076 -158.200 TC 32 4 118
1998031S12187 1998 9 SP MM WES 1998-02-04 06:00:00 TS -16.8000 -158.314 40 990 nadi main 1528 1528 O_______O___O_ jtwc_sh SH191998 -16.8000 -157.800 30 -1 -16.8000 -158.700 40 990 -16.8000 -158.700 40 990 -16.8000 -157.800 TC 30 3 138
1998031S12187 1998 9 SP MM WES 1998-02-04 09:00:00 TS -16.9325 -158.258 main 1530 1530 P______IP___P_ SH191998 -16.8975 -157.475 27 -1 -16.9500 -158.650 37 992 -16.9500 -158.650 37 992 -16.8975 -157.475 TC 27 3 0
1998031S12187 1998 9 SP MM WES 1998-02-04 12:00:00 TS -17.0800 -158.320 35 995 nadi main 1534 1516 O_______O___O_ jtwc_sh SH191998 -17.0000 -157.200 25 -1 -17.1000 -158.600 35 995 -17.1000 -158.600 35 995 -17.0000 -157.200 TC 25 4 225
1998031S12187 1998 9 SP MM WES 1998-02-04 15:00:00 NR -17.2075 -158.550 main 1506 1506 _______IP_____ SH191998 -1 -17.2075 -158.550 32 996 -17.2075 -158.550 32 996 TC 3 218
1998031S12187 1998 9 SP MM WES 1998-02-04 18:00:00 NR -17.3000 -158.500 30 997 nadi main 1519 1519 ________O_____ -1 -17.3000 -158.500 30 997 -17.3000 -158.500 30 997 2 153
1998031S12187 1998 9 SP MM WES 1998-02-04 21:00:00 NR -17.3975 -158.450 main 1521 1521 _______IP_____ -1 -17.3975 -158.450 27 998 -17.3975 -158.450 27 998 2 153
1998031S12187 1998 9 SP MM WES 1998-02-05 00:00:00 NR -17.5000 -158.400 25 999 nadi main 1534 ________O_____ -1 -17.5000 -158.400 25 999 -17.5000 -158.400 25 999 2 156

デジタル台風データ・検索

IBTrACS Databaseについて

本データベースは、米国NOAAが公開する1842年以降の世界の熱帯低気圧のベストトラックデータアーカイブInternational Best Track Archive for Climate Stewardship (IBTrACS)を、ウェブで閲覧しやすい形式に変換したものです。

最終更新日:2021-10-21